Blacksville, WV (26521)

3:33 PM EDT on September 01, 2014 (GMT -0400)
Brooks green roof | Change Station
CLOSE
Current Station
Personal Weather Station
Location: Morgantown, WV
Elevation: 873 ft
Nearby Weather Stations

Elev 873 ft 39.64 °N, 79.96 °W | Updated 2 minutes ago

Partly Cloudy
Partly Cloudy
82.8 °F
Feels Like 87 °F
N
9.8
Wind Variable Wind from South
Gusts 16.1 mph

Today
High -- | Low -- °F
--% Chance of Precip.
Yesterday
High -- | Low -- °F
Precip. -- in
6:49 AM 7:52 PM
Waxing Crescent, 43% visible
Pressure 30.00 in
Visibility 10.0 miles
Clouds Mostly Cloudy 3000 ft
Heat Index 87 °F
Dew Point 71 °F
Humidity 68%
Rainfall 0.17 in
Snow Depth Not available.
UV 4 out of 12
Pollen 9.20 out of 12
Air Quality Not available.
Flu Activity Not available.
METAR KMGW 011853Z VRB05KT 10SM BKN030 28/20 A3003 RMK AO2 SLP158 T02830200

More Conditions Fewer Conditions

Pressure 30.00 in
Visibility 10.0 miles
Clouds Mostly Cloudy 3000 ft
Heat Index 87 °F
Dew Point 71 °F
Humidity 68%
Rainfall 0.17 in
Snow Depth Not available.
UV 4 out of 12
Pollen 9.20 out of 12
Air Quality Not available.
Flu Activity Not available.
METAR KMGW 011853Z VRB05KT 10SM BKN030 28/20 A3003 RMK AO2 SLP158 T02830200

More Conditions Fewer Conditions

10-Day Weather Forecast

Almanac

Astronomy

Sep. 01, 2014 Rise Set
Actual Time 6:49 AM EDT 7:52 PM EDT
Civil Twilight 6:21 AM EDT 8:19 PM EDT
Nautical Twilight 5:48 AM EDT 8:52 PM EDT
Astronomical Twilight 5:14 AM EDT 9:26 PM EDT
Moon 1:32 PM EDT 11:53 PM EDT
Length of Visible Light 13h 58m
Length of Day
13h 03m
Tomorrow will be 2m 30s shorter.
Waxing Crescent, 43% of the Moon is Illuminated
Today
Waxing Crescent
Sep 2
First Quarter
Sep 8
Full
Sep 15
Last Quarter
Sep 24
New

Today's Extremes

State Highs State Lows

Community

WunderPhotos

Upload Photos

1,749,385 photos uploaded!

WunderBlogs® & News

Nearby

Snow Depth

Station Depth Elevation
No new snow has been reported.

Earthquake Activity

City Distance Mag. Time & Date
No recent earthquake activity has been reported nearby.
Minimum magnitude displayed is 2.5.

Coastal Water Temperatures

Place Temperature
No Stations Reporting

Nearby Weather Stations